Time;durP1;ratioP1;P1;durP2;ratioP2;P2;SDS_P1;SDS_P2;PMS_P1;PMS_P2;Temp;Humidity;BMP_temperature;BMP_pressure;BME280_temperature;BME280_humidity;BME280_pressure;Samples;Min_cycle;Max_cycle;Signal;HPM_P1;HPM_P2
2022/04/27 00:01:43;;;;;;;530.50;150.43;;;;;;;7.64;78.79;96434.41;5047777;28;20542;-72
2022/04/27 00:04:09;;;;;;;446.75;136.73;;;;;;;7.63;79.23;96433.63;5047289;28;20052;-72
2022/04/27 00:06:36;;;;;;;108.35;27.98;;;;;;;7.67;79.29;96431.09;5048423;28;20056;-73
2022/04/27 00:09:03;;;;;;;217.63;66.07;;;;;;;7.70;78.93;96435.94;5046695;28;20084;-72
2022/04/27 00:11:31;;;;;;;109.20;31.23;;;;;;;7.67;78.82;96439.22;5047334;28;20128;-72
2022/04/27 00:14:00;;;;;;;105.35;31.05;;;;;;;7.58;78.47;96431.00;5046047;28;20045;-72
2022/04/27 00:16:27;;;;;;;548.63;190.95;;;;;;;7.56;78.55;96423.13;5047693;28;20055;-73
2022/04/27 00:18:53;;;;;;;62.00;24.65;;;;;;;7.48;78.46;96434.66;5047574;28;20081;-72
2022/04/27 00:21:20;;;;;;;453.27;107.30;;;;;;;7.48;78.81;96431.16;5047508;28;20541;-72
2022/04/27 00:23:46;;;;;;;198.90;58.10;;;;;;;7.52;78.88;96433.00;5047724;28;20045;-72
2022/04/27 00:26:13;;;;;;;60.97;15.20;;;;;;;7.61;78.59;96429.59;5046992;28;20052;-72
2022/04/27 00:28:41;;;;;;;42.38;9.90;;;;;;;7.63;78.42;96433.63;5048798;28;20048;-71
2022/04/27 00:31:08;;;;;;;12.93;7.72;;;;;;;7.67;78.45;96433.81;5047343;28;20057;-72
2022/04/27 00:33:34;;;;;;;54.53;12.00;;;;;;;7.62;78.56;96428.47;5048449;28;20543;-72
2022/04/27 00:36:01;;;;;;;42.28;11.05;;;;;;;7.50;79.04;96437.06;5047806;28;20098;-72
2022/04/27 00:38:27;;;;;;;66.25;11.50;;;;;;;7.35;79.69;96438.13;5047754;28;20041;-72
2022/04/27 00:40:54;;;;;;;11.95;8.43;;;;;;;7.26;79.96;96446.13;5047871;28;20049;-72
2022/04/27 00:43:35;;;;;;;63.33;14.80;;;;;;;7.29;80.42;96442.00;5047442;28;20045;-73
2022/04/27 00:46:03;;;;;;;525.08;173.30;;;;;;;7.39;79.93;96441.84;5047739;28;20419;-71
2022/04/27 00:48:29;;;;;;;565.15;163.30;;;;;;;7.39;80.21;96446.47;5047479;28;20056;-72
2022/04/27 00:50:56;;;;;;;545.35;161.18;;;;;;;7.36;79.99;96442.47;5047822;28;20719;-72
2022/04/27 00:53:23;;;;;;;555.55;173.13;;;;;;;7.41;80.01;96447.78;5046665;28;20049;-72
2022/04/27 00:55:50;;;;;;;528.00;173.35;;;;;;;7.43;80.13;96442.06;5047806;28;20072;-72
2022/04/27 00:58:18;;;;;;;550.20;171.40;;;;;;;7.46;79.84;96450.41;5046008;28;20053;-72
2022/04/27 01:00:45;;;;;;;212.13;84.35;;;;;;;7.42;80.03;96454.81;5047782;28;20052;-72
2022/04/27 01:03:13;;;;;;;254.80;119.63;;;;;;;7.39;79.92;96449.97;5046939;28;20064;-72
2022/04/27 01:05:40;;;;;;;109.22;27.95;;;;;;;7.41;80.24;96450.47;5047578;28;20051;-72
2022/04/27 01:08:07;;;;;;;129.05;52.58;;;;;;;7.39;80.01;96444.56;5047134;28;20048;-73
2022/04/27 01:10:34;;;;;;;114.15;39.50;;;;;;;7.38;80.02;96451.09;5046998;28;20052;-72
2022/04/27 01:13:00;;;;;;;431.23;154.75;;;;;;;7.28;80.58;96454.75;5045506;28;20057;-72
2022/04/27 01:15:32;;;;;;;125.05;40.75;;;;;;;7.26;80.71;96456.97;5046322;28;20507;-72
2022/04/27 01:17:59;;;;;;;132.68;38.03;;;;;;;7.35;80.69;96457.09;5047869;28;20045;-72
2022/04/27 01:20:35;;;;;;;422.17;135.68;;;;;;;7.26;80.45;96456.16;5046268;28;20064;-73
2022/04/27 01:23:02;;;;;;;156.57;56.70;;;;;;;7.29;80.62;96450.13;5047365;28;20902;-72
2022/04/27 01:25:28;;;;;;;79.15;23.25;;;;;;;7.34;80.49;96452.78;5046776;28;20037;-72
2022/04/27 01:27:55;;;;;;;289.85;92.82;;;;;;;7.32;80.33;96454.97;5047277;28;20049;-72
2022/04/27 01:30:22;;;;;;;75.93;16.83;;;;;;;7.38;80.41;96447.56;5046593;28;20057;-72
2022/04/27 01:32:48;;;;;;;281.63;131.45;;;;;;;7.40;80.46;96451.59;5047144;28;20049;-72
2022/04/27 01:35:15;;;;;;;236.38;76.47;;;;;;;7.43;80.25;96453.72;5047193;28;20049;-72
2022/04/27 01:38:01;;;;;;;196.20;52.72;;;;;;;7.43;80.07;96450.22;5045706;28;20048;-73
2022/04/27 01:40:27;;;;;;;82.13;17.42;;;;;;;7.41;79.95;96458.59;5046637;28;20037;-72
2022/04/27 01:42:54;;;;;;;68.03;23.63;;;;;;;7.35;79.75;96453.56;5045797;28;20338;-72
2022/04/27 01:45:20;;;;;;;87.43;16.45;;;;;;;7.36;79.93;96461.44;5046360;28;20426;-72
2022/04/27 01:47:47;;;;;;;46.85;10.18;;;;;;;7.40;80.14;96467.03;5046331;28;20045;-73
2022/04/27 01:50:13;;;;;;;80.03;14.48;;;;;;;7.39;79.73;96470.84;5046154;28;20052;-72
2022/04/27 01:55:25;;;;;;;381.90;129.13;;;;;;;7.09;80.41;96472.09;5045566;28;20175;-73
2022/04/27 01:57:53;;;;;;;13.65;9.55;;;;;;;7.00;80.86;96469.25;5046718;28;20052;-72
2022/04/27 02:00:20;;;;;;;66.00;11.35;;;;;;;6.90;81.24;96464.00;5045298;28;20044;-72
2022/04/27 02:02:47;;;;;;;68.53;16.33;;;;;;;6.69;81.77;96468.88;5046398;28;20056;-72
2022/04/27 02:05:13;;;;;;;66.15;15.98;;;;;;;6.76;81.74;96469.31;5045430;28;20641;-73
2022/04/27 02:07:40;;;;;;;56.83;10.85;;;;;;;6.84;81.49;96468.66;5045931;28;20053;-72
2022/04/27 02:10:07;;;;;;;76.35;18.70;;;;;;;6.79;81.48;96466.81;5045299;28;20056;-72
2022/04/27 02:12:35;;;;;;;101.82;26.67;;;;;;;6.80;81.63;96468.44;5045721;28;20053;-72
2022/04/27 02:15:02;;;;;;;70.50;12.07;;;;;;;6.82;81.21;96468.13;5046182;28;20098;-73
2022/04/27 02:17:30;;;;;;;61.58;11.57;;;;;;;6.82;81.16;96468.13;5046157;28;20107;-74
2022/04/27 02:19:56;;;;;;;66.18;10.88;;;;;;;6.82;81.13;96472.75;5046346;28;20049;-72
2022/04/27 02:22:23;;;;;;;63.97;13.55;;;;;;;6.82;80.92;96462.72;5045060;28;20049;-72
2022/04/27 02:24:49;;;;;;;52.88;10.68;;;;;;;6.70;80.63;96465.06;5046373;28;20045;-72
2022/04/27 02:27:16;;;;;;;96.72;25.40;;;;;;;6.56;81.08;96464.13;5045003;28;20049;-72
2022/04/27 02:29:43;;;;;;;61.88;10.88;;;;;;;6.43;81.67;96461.06;5045956;28;20057;-72
2022/04/27 02:32:10;;;;;;;81.40;31.15;;;;;;;6.41;81.62;96467.81;5045479;28;20068;-72
2022/04/27 02:34:36;;;;;;;146.70;62.38;;;;;;;6.28;81.86;96470.13;5045850;28;20045;-72
2022/04/27 02:37:06;;;;;;;53.08;11.10;;;;;;;6.26;82.09;96471.50;5045640;28;20136;-73
2022/04/27 02:39:33;;;;;;;132.27;74.13;;;;;;;6.14;82.74;96479.22;5045471;28;20075;-72
2022/04/27 02:41:59;;;;;;;57.45;11.48;;;;;;;6.06;82.89;96477.16;5045805;28;20048;-71
2022/04/27 02:44:26;;;;;;;302.98;125.15;;;;;;;6.13;82.81;96483.00;5042435;28;20155;-72
2022/04/27 02:46:54;;;;;;;312.25;119.38;;;;;;;6.17;82.41;96484.06;5045962;28;20506;-72
2022/04/27 02:52:06;;;;;;;261.50;91.57;;;;;;;6.19;82.41;96488.06;5045267;28;20091;-72
2022/04/27 02:54:33;;;;;;;288.33;111.13;;;;;;;6.28;82.14;96494.47;5045456;28;20045;-71
2022/04/27 02:56:59;;;;;;;507.13;149.65;;;;;;;6.30;82.01;96496.88;5045261;28;20064;-72
2022/04/27 02:59:26;;;;;;;122.68;53.63;;;;;;;6.22;81.92;96502.94;5060574;28;20041;-71
2022/04/27 03:01:54;;;;;;;104.63;18.33;;;;;;;6.16;82.10;96504.06;5044972;28;20037;-72
2022/04/27 03:04:20;;;;;;;123.45;38.80;;;;;;;6.15;81.86;96502.44;5045304;28;20052;-71
2022/04/27 03:06:47;;;;;;;110.90;21.55;;;;;;;6.08;82.09;96499.28;5044768;28;20041;-72
2022/04/27 03:09:13;;;;;;;78.30;15.38;;;;;;;5.94;82.82;96497.25;5045503;28;20500;-71
2022/04/27 03:11:40;;;;;;;342.13;105.50;;;;;;;5.89;83.31;96508.06;5044850;28;20384;-72
2022/04/27 03:14:06;;;;;;;78.72;12.75;;;;;;;5.92;83.14;96507.53;5044941;28;20052;-72
2022/04/27 03:16:33;;;;;;;172.80;54.28;;;;;;;5.74;83.76;96505.50;5045070;28;20052;-72
2022/04/27 03:19:01;;;;;;;241.27;89.18;;;;;;;5.59;84.58;96511.84;5045368;28;20068;-72
2022/04/27 03:21:29;;;;;;;264.02;101.28;;;;;;;5.62;85.24;96515.88;5045012;28;20107;-71
2022/04/27 03:23:56;;;;;;;100.10;23.20;;;;;;;5.58;85.26;96520.22;5044970;28;20049;-71
2022/04/27 03:26:22;;;;;;;101.47;28.00;;;;;;;5.62;85.25;96511.25;5045026;28;20056;-71
2022/04/27 03:28:49;;;;;;;112.10;26.98;;;;;;;5.68;85.24;96514.72;5043789;28;20048;-72
2022/04/27 03:31:15;;;;;;;74.57;16.38;;;;;;;5.70;84.72;96512.56;5044724;28;20107;-72
2022/04/27 03:33:41;;;;;;;101.22;29.80;;;;;;;5.77;84.61;96518.44;5044669;28;20037;-72
2022/04/27 03:36:11;;;;;;;119.32;30.38;;;;;;;5.83;84.27;96527.31;5045068;28;20064;-72
2022/04/27 03:38:38;;;;;;;80.50;16.85;;;;;;;5.87;84.21;96521.06;5044559;28;20484;-72
2022/04/27 03:41:05;;;;;;;130.75;28.73;;;;;;;5.91;84.15;96524.03;5041394;28;20053;-71
2022/04/27 03:43:31;;;;;;;520.25;181.90;;;;;;;5.85;84.17;96525.97;5044654;28;20063;-72
2022/04/27 03:45:58;;;;;;;164.75;50.92;;;;;;;5.85;84.43;96523.25;5044990;28;20059;-71
2022/04/27 03:48:24;;;;;;;58.05;12.93;;;;;;;5.87;84.64;96523.78;5044332;28;20061;-72
2022/04/27 03:50:51;;;;;;;69.90;12.98;;;;;;;5.95;84.46;96520.50;5044375;28;20053;-71
2022/04/27 03:53:19;;;;;;;69.50;15.38;;;;;;;6.09;84.30;96530.63;5044320;28;20052;-71
2022/04/27 03:55:46;;;;;;;72.88;13.38;;;;;;;6.03;84.36;96532.56;5044000;28;20052;-72
2022/04/27 03:58:12;;;;;;;576.33;162.95;;;;;;;6.10;84.23;96543.06;5044041;28;20508;-72
2022/04/27 04:00:39;;;;;;;516.50;141.82;;;;;;;6.10;84.12;96548.47;5045134;28;20044;-72
2022/04/27 04:03:05;;;;;;;568.70;142.52;;;;;;;6.14;84.02;96554.91;5047552;28;20045;-71
2022/04/27 04:05:32;;;;;;;552.30;138.23;;;;;;;6.08;84.03;96553.34;5047378;28;20053;-72
2022/04/27 04:07:58;;;;;;;560.38;149.25;;;;;;;6.20;83.77;96556.47;5047688;28;20048;-71
2022/04/27 04:10:26;;;;;;;569.53;154.77;;;;;;;6.25;83.52;96556.44;5047307;28;20052;-71
2022/04/27 04:12:53;;;;;;;574.58;151.75;;;;;;;6.29;83.36;96568.31;5048449;28;20057;-73
2022/04/27 04:15:19;;;;;;;568.92;151.45;;;;;;;6.21;83.70;96566.19;5048475;28;20052;-74
2022/04/27 04:17:46;;;;;;;481.85;147.43;;;;;;;6.25;83.50;96572.66;5047981;28;20048;-74
2022/04/27 04:20:14;;;;;;;111.35;29.20;;;;;;;6.16;84.04;96577.06;5047910;28;20049;-74
2022/04/27 04:22:40;;;;;;;56.70;16.92;;;;;;;6.24;84.18;96579.97;5047637;28;20057;-74
2022/04/27 04:30:38;;;;;;;63.30;14.48;;;;;;;6.20;85.05;96575.41;5047563;28;20114;-72
2022/04/27 04:33:04;;;;;;;33.22;12.15;;;;;;;6.33;84.68;96580.16;5048076;28;20507;-72
2022/04/27 04:35:31;;;;;;;58.33;13.10;;;;;;;6.46;84.50;96582.19;5047441;28;20040;-72
2022/04/27 04:37:57;;;;;;;75.13;19.50;;;;;;;6.47;83.60;96585.69;5048612;28;20059;-72
2022/04/27 04:40:24;;;;;;;218.13;70.78;;;;;;;6.49;83.92;96594.34;5046839;28;20106;-72
2022/04/27 04:42:50;;;;;;;242.15;99.63;;;;;;;6.38;83.91;96592.84;5047931;28;20056;-75
2022/04/27 04:45:18;;;;;;;302.23;103.55;;;;;;;6.40;84.06;96593.34;5046997;28;20052;-72
2022/04/27 04:47:45;;;;;;;521.05;163.13;;;;;;;6.52;84.17;96594.59;5047982;28;20407;-72
2022/04/27 04:50:12;;;;;;;73.78;17.38;;;;;;;6.62;84.10;96592.84;5046746;28;20606;-72
2022/04/27 04:52:39;;;;;;;124.22;35.45;;;;;;;6.64;83.57;96596.09;5047809;28;20431;-72
2022/04/27 04:55:06;;;;;;;72.07;19.88;;;;;;;6.74;83.76;96601.41;5047634;28;20122;-72
2022/04/27 04:57:32;;;;;;;115.47;34.60;;;;;;;6.83;83.27;96610.50;5047053;28;20095;-73
2022/04/27 04:59:59;;;;;;;523.97;152.85;;;;;;;6.89;83.23;96608.53;5048116;28;20119;-72
2022/04/27 05:02:30;;;;;;;67.32;15.68;;;;;;;6.77;82.76;96614.34;5046258;28;20407;-72
2022/04/27 05:04:56;;;;;;;232.40;75.70;;;;;;;6.86;83.44;96609.13;5047660;28;20052;-72
2022/04/27 05:07:23;;;;;;;79.57;24.42;;;;;;;6.92;83.04;96618.78;5046479;28;20807;-73
2022/04/27 05:09:49;;;;;;;101.03;36.45;;;;;;;7.01;82.71;96628.72;5047768;28;20048;-73
2022/04/27 05:12:15;;;;;;;97.30;42.53;;;;;;;7.06;82.76;96627.84;5046231;28;20561;-72
2022/04/27 05:14:42;;;;;;;301.45;136.88;;;;;;;7.14;82.54;96629.09;5047164;28;20076;-72
2022/04/27 05:17:08;;;;;;;65.20;15.88;;;;;;;7.07;82.20;96627.56;5046774;28;20511;-74
2022/04/27 05:19:37;;;;;;;82.18;17.02;;;;;;;7.14;82.62;96629.09;5047156;28;20075;-72
2022/04/27 05:22:04;;;;;;;84.25;21.50;;;;;;;7.15;83.13;96638.81;5046499;28;20057;-72
2022/04/27 05:24:30;;;;;;;80.75;15.57;;;;;;;7.24;83.17;96631.69;5046785;28;20048;-76
2022/04/27 05:26:57;;;;;;;58.78;13.55;;;;;;;7.36;82.82;96632.09;5047812;28;20060;-74
2022/04/27 05:32:10;;;;;;;162.05;52.55;;;;;;;7.49;82.20;96630.56;5046540;28;20682;-72
2022/04/27 05:34:39;;;;;;;51.90;13.85;;;;;;;7.53;81.58;96635.13;5046911;28;20056;-72
2022/04/27 05:37:05;;;;;;;155.95;51.92;;;;;;;7.41;80.71;96637.41;5046600;28;20049;-73
2022/04/27 05:39:32;;;;;;;44.97;13.15;;;;;;;7.42;80.87;96639.06;5047070;28;20048;-72
2022/04/27 05:41:58;;;;;;;84.97;20.45;;;;;;;7.35;81.87;96649.44;5046710;28;20045;-73
2022/04/27 05:44:26;;;;;;;517.40;194.77;;;;;;;7.47;81.32;96646.31;5045832;28;20049;-73
2022/04/27 05:46:54;;;;;;;73.85;23.73;;;;;;;7.56;81.69;96660.81;5046502;28;20048;-72
2022/04/27 05:49:21;;;;;;;142.88;63.75;;;;;;;7.53;81.46;96654.09;5046958;28;20080;-72
2022/04/27 05:51:49;;;;;;;228.02;101.47;;;;;;;7.62;81.61;96665.06;5045861;28;20114;-73
2022/04/27 05:54:16;;;;;;;63.13;15.32;;;;;;;7.45;81.50;96660.13;5046504;28;20083;-72
2022/04/27 05:56:43;;;;;;;55.35;14.30;;;;;;;7.53;81.67;96673.06;5046159;28;20127;-72
2022/04/27 05:59:10;;;;;;;78.80;16.17;;;;;;;7.68;81.95;96669.34;5045510;28;20057;-72
2022/04/27 06:01:38;;;;;;;62.63;14.70;;;;;;;7.65;81.54;96671.81;5045861;28;20052;-72
2022/04/27 06:04:05;;;;;;;72.25;15.38;;;;;;;7.72;81.39;96674.97;5045641;28;20056;-72
2022/04/27 06:06:31;;;;;;;43.25;13.07;;;;;;;7.75;81.25;96674.41;5046227;28;20510;-72
2022/04/27 06:08:59;;;;;;;61.45;15.02;;;;;;;7.81;80.88;96675.94;5046009;28;20133;-72
2022/04/27 06:11:26;;;;;;;54.10;14.90;;;;;;;7.83;80.97;96687.31;5040064;28;20048;-72
2022/04/27 06:13:52;;;;;;;56.78;15.18;;;;;;;7.88;81.07;96679.09;5025987;28;20133;-72
2022/04/27 06:16:19;;;;;;;54.80;14.00;;;;;;;7.81;80.31;96684.06;5026307;28;20128;-74
2022/04/27 06:18:45;;;;;;;52.80;14.35;;;;;;;7.86;80.10;96686.72;5025858;28;20065;-72
2022/04/27 06:21:12;;;;;;;65.00;15.13;;;;;;;7.69;80.61;96691.84;5025613;28;20049;-72
2022/04/27 06:23:39;;;;;;;51.95;14.82;;;;;;;7.78;80.74;96687.38;5025314;28;20779;-73
2022/04/27 06:26:07;;;;;;;64.18;14.80;;;;;;;7.80;80.96;96693.31;5025622;28;20049;-73
2022/04/27 06:28:33;;;;;;;58.80;14.60;;;;;;;7.89;80.96;96696.97;5026455;28;20057;-72
2022/04/27 06:31:01;;;;;;;47.95;15.43;;;;;;;7.98;81.61;96695.22;5025512;28;20420;-73
2022/04/27 06:33:28;;;;;;;42.08;14.35;;;;;;;8.11;81.33;96696.41;5026419;28;20056;-76
2022/04/27 06:35:54;;;;;;;51.15;14.75;;;;;;;8.08;80.88;96694.25;5025907;28;20045;-73
2022/04/27 06:38:21;;;;;;;45.97;14.75;;;;;;;8.11;80.60;96699.13;5026083;28;20041;-72
2022/04/27 06:40:47;;;;;;;49.08;14.88;;;;;;;8.26;82.29;96701.59;5026489;28;20048;-72
2022/04/27 06:43:15;;;;;;;42.50;15.75;;;;;;;8.34;82.28;96702.81;5045393;28;20045;-73
2022/04/27 06:45:41;;;;;;;51.72;15.38;;;;;;;8.42;82.78;96702.22;5045834;28;20445;-72
2022/04/27 06:48:08;;;;;;;51.92;14.50;;;;;;;8.45;81.46;96704.31;5045685;28;20044;-72
2022/04/27 06:50:35;;;;;;;54.13;14.68;;;;;;;8.37;80.45;96705.00;5045664;28;20863;-73
2022/04/27 06:53:01;;;;;;;54.92;16.33;;;;;;;8.46;81.25;96708.66;5045581;28;20049;-73
2022/04/27 06:55:28;;;;;;;40.75;14.30;;;;;;;8.63;80.74;96711.63;5045883;28;20091;-73
2022/04/27 06:57:55;;;;;;;54.22;14.88;;;;;;;8.36;80.47;96719.66;5045001;28;20045;-72
2022/04/27 07:00:25;;;;;;;61.15;15.32;;;;;;;8.68;80.63;96723.53;5046010;28;20052;-73
2022/04/27 07:02:52;;;;;;;35.83;13.38;;;;;;;8.76;79.20;96723.63;5045574;28;20048;-73
2022/04/27 07:05:20;;;;;;;52.55;15.05;;;;;;;8.80;78.06;96716.50;5045639;28;20063;-73
2022/04/27 07:07:47;;;;;;;57.55;14.57;;;;;;;8.84;78.86;96722.16;5045122;28;20049;-73
2022/04/27 07:10:16;;;;;;;86.38;17.75;;;;;;;8.67;77.89;96722.72;5045080;28;20053;-72
2022/04/27 07:12:44;;;;;;;50.08;14.60;;;;;;;8.69;78.32;96727.84;5045080;28;20056;-73
2022/04/27 07:15:10;;;;;;;52.50;14.88;;;;;;;8.59;79.56;96726.09;5044843;28;20135;-73
2022/04/27 07:17:38;;;;;;;50.38;13.77;;;;;;;8.69;79.02;96731.34;5045844;28;20053;-73
2022/04/27 07:20:06;;;;;;;59.65;15.35;;;;;;;8.85;78.86;96729.19;5044171;28;20049;-73
2022/04/27 07:22:32;;;;;;;56.42;15.13;;;;;;;8.95;78.85;96726.31;5045608;28;20064;-73
2022/04/27 07:25:00;;;;;;;48.67;14.00;;;;;;;8.75;78.01;96727.44;5045068;28;20471;-72
2022/04/27 07:27:27;;;;;;;46.75;14.65;;;;;;;8.98;77.78;96731.16;5045269;28;20068;-72
2022/04/27 07:29:53;;;;;;;40.38;12.65;;;;;;;9.07;77.71;96732.06;5045007;28;20458;-72
2022/04/27 07:32:20;;;;;;;53.72;13.88;;;;;;;9.15;76.13;96727.84;5044855;28;20053;-73
2022/04/27 07:34:51;;;;;;;53.83;14.05;;;;;;;9.30;74.98;96737.66;5047414;28;20474;-73
2022/04/27 07:37:18;;;;;;;60.78;13.73;;;;;;;9.57;75.10;96728.69;5048731;28;20049;-72
2022/04/27 07:39:44;;;;;;;34.22;11.98;;;;;;;9.76;74.30;96732.13;5049769;28;20102;-74
2022/04/27 07:42:11;;;;;;;48.72;12.73;;;;;;;9.84;72.10;96733.31;5048171;28;20051;-72
2022/04/27 07:44:37;;;;;;;46.50;11.95;;;;;;;9.84;70.42;96736.03;5049541;28;20695;-72
2022/04/27 07:47:04;;;;;;;36.88;11.00;;;;;;;9.80;71.61;96733.13;5049206;28;20045;-72
2022/04/27 07:49:31;;;;;;;36.20;11.38;;;;;;;9.98;71.40;96747.72;5049783;28;20057;-72
2022/04/27 07:51:59;;;;;;;48.25;11.38;;;;;;;10.95;65.93;96745.50;5048574;28;20041;-72
2022/04/27 07:54:25;;;;;;;43.55;11.60;;;;;;;11.72;62.52;96742.38;5048822;28;20049;-72
2022/04/27 07:56:52;;;;;;;47.30;10.60;;;;;;;12.24;59.90;96742.56;5048954;28;20491;-72
2022/04/27 07:59:18;;;;;;;61.25;12.38;;;;;;;11.68;60.74;96740.59;5048871;28;20053;-71
2022/04/27 08:01:45;;;;;;;45.15;11.52;;;;;;;12.23;67.71;96743.69;5048918;28;20048;-71
2022/04/27 08:04:11;;;;;;;53.55;10.88;;;;;;;13.56;59.29;96753.06;5048602;28;20048;-72
2022/04/27 08:06:38;;;;;;;11.90;9.00;;;;;;;13.94;55.91;96752.25;5049426;28;20708;-72
2022/04/27 08:09:06;;;;;;;29.45;11.20;;;;;;;14.36;55.75;96747.69;5048537;28;20553;-73
2022/04/27 08:11:33;;;;;;;19.67;9.20;;;;;;;13.72;53.83;96754.13;5049350;28;20048;-72
2022/04/27 08:13:59;;;;;;;33.70;10.70;;;;;;;13.31;57.18;96744.63;5048376;28;20057;-72
2022/04/27 08:16:26;;;;;;;48.08;11.32;;;;;;;14.64;57.17;96752.66;5048851;28;20040;-71
2022/04/27 08:18:52;;;;;;;38.75;11.68;;;;;;;15.42;53.15;96752.75;5047949;28;20045;-71
2022/04/27 08:21:21;;;;;;;49.50;11.13;;;;;;;15.80;52.37;96755.22;5048322;28;20049;-72
2022/04/27 08:23:49;;;;;;;43.47;10.50;;;;;;;15.20;51.40;96764.91;5048244;28;20053;-72
2022/04/27 08:26:17;;;;;;;53.80;11.27;;;;;;;14.38;51.90;96755.56;5048181;28;20060;-72
2022/04/27 08:28:45;;;;;;;38.45;10.43;;;;;;;13.63;54.87;96769.00;5048735;28;20048;-73
2022/04/27 08:31:13;;;;;;;51.22;12.07;;;;;;;13.04;58.82;96759.41;5047713;28;20547;-72
2022/04/27 08:33:40;;;;;;;59.72;11.77;;;;;;;12.46;61.67;96765.38;5048427;28;20053;-71
2022/04/27 08:36:07;;;;;;;40.53;11.02;;;;;;;11.96;62.09;96774.78;5047325;28;20618;-71
2022/04/27 08:38:35;;;;;;;56.50;11.18;;;;;;;11.63;63.90;96770.75;5048303;28;20052;-72
2022/04/27 08:41:02;;;;;;;42.35;10.23;;;;;;;11.47;65.43;96771.16;5046321;28;20052;-72
2022/04/27 08:43:30;;;;;;;58.10;12.00;;;;;;;11.33;65.17;96767.72;5048416;28;20567;-71
2022/04/27 08:45:58;;;;;;;24.45;9.77;;;;;;;11.28;64.83;96770.59;5047545;28;20710;-71
2022/04/27 08:48:24;;;;;;;45.88;10.75;;;;;;;11.26;64.14;96772.81;5047528;28;20049;-73
2022/04/27 08:50:52;;;;;;;43.70;10.57;;;;;;;11.13;63.66;96779.97;5048235;28;20041;-72
2022/04/27 08:53:19;;;;;;;63.20;11.30;;;;;;;11.00;65.05;96775.38;5047207;28;20083;-72
2022/04/27 08:55:45;;;;;;;19.63;9.95;;;;;;;10.95;64.87;96781.75;5048439;28;20561;-72
2022/04/27 08:58:13;;;;;;;52.10;10.45;;;;;;;10.90;66.16;96783.78;5046614;28;20051;-72
2022/04/27 09:00:43;;;;;;;33.95;10.27;;;;;;;10.89;66.93;96793.06;5048344;28;20044;-72
2022/04/27 09:03:23;;;;;;;41.42;10.57;;;;;;;10.99;68.39;96790.09;5046888;28;20049;-72
2022/04/27 09:05:51;;;;;;;50.67;10.95;;;;;;;11.04;68.47;96787.25;5047885;28;20075;-72
2022/04/27 09:08:18;;;;;;;37.53;10.38;;;;;;;11.22;68.91;96799.91;5047456;28;20048;-72
2022/04/27 09:10:45;;;;;;;37.30;10.57;;;;;;;11.22;68.03;96794.44;5047448;28;20048;-72
2022/04/27 09:13:11;;;;;;;31.50;10.30;;;;;;;11.14;67.63;96803.38;5047469;28;20049;-72
2022/04/27 09:15:38;;;;;;;55.65;11.57;;;;;;;11.17;66.64;96797.31;5047402;28;20049;-74
2022/04/27 09:21:00;;;;;;;22.90;9.82;;;;;;;11.04;66.12;96806.34;5047427;28;20054;-73
2022/04/27 09:23:29;;;;;;;33.80;11.20;;;;;;;10.93;64.94;96807.69;5047217;28;20049;-73
2022/04/27 09:25:57;;;;;;;46.63;11.60;;;;;;;11.00;68.74;96808.06;5046861;28;20431;-73
2022/04/27 09:28:26;;;;;;;23.95;10.63;;;;;;;10.98;67.96;96818.47;5046452;28;20045;-72
2022/04/27 09:30:53;;;;;;;47.17;10.90;;;;;;;10.91;68.08;96815.34;5046997;28;20094;-76
2022/04/27 09:33:35;;;;;;;49.88;11.50;;;;;;;10.71;69.71;96812.00;5045998;28;20049;-73
2022/04/27 09:36:03;;;;;;;47.95;12.30;;;;;;;10.71;68.50;96812.00;5046982;28;20053;-73
2022/04/27 09:38:40;;;;;;;48.45;11.45;;;;;;;10.73;68.48;96816.34;5045684;28;20052;-73
2022/04/27 09:41:06;;;;;;;53.22;13.15;;;;;;;10.71;69.77;96806.56;5046009;28;20143;-72
2022/04/27 09:43:44;;;;;;;43.88;11.40;;;;;;;10.52;69.50;96819.53;5046733;28;20051;-73
2022/04/27 09:46:20;;;;;;;55.80;13.10;;;;;;;10.45;69.98;96822.66;5046077;28;20064;-72
2022/04/27 09:48:47;;;;;;;50.25;11.27;;;;;;;10.38;69.66;96824.19;5046864;28;20132;-73
2022/04/27 09:51:15;;;;;;;55.13;12.55;;;;;;;10.33;70.57;96824.28;5045520;28;20076;-72
2022/04/27 09:53:43;;;;;;;25.13;11.15;;;;;;;10.32;70.81;96825.41;5047231;28;20039;-72
2022/04/27 09:56:12;;;;;;;48.97;11.73;;;;;;;10.41;71.02;96824.38;5045269;28;20080;-72
2022/04/27 09:58:43;;;;;;;54.10;12.05;;;;;;;10.47;71.46;96827.81;5045872;28;20048;-72
2022/04/27 10:01:12;;;;;;;43.28;10.65;;;;;;;10.47;70.53;96821.56;5046075;28;20120;-72
2022/04/27 10:03:40;;;;;;;75.75;14.18;;;;;;;10.50;70.00;96827.19;5046509;28;20465;-72
2022/04/27 10:06:08;;;;;;;64.20;12.48;;;;;;;10.42;69.58;96827.91;5046205;28;20060;-72
2022/04/27 10:08:38;;;;;;;56.33;10.75;;;;;;;10.52;69.38;96837.78;5046036;28;20045;-73
2022/04/27 10:11:06;;;;;;;56.00;10.95;;;;;;;10.61;70.06;96841.41;5045965;28;20048;-72
2022/04/27 10:13:33;;;;;;;60.58;11.82;;;;;;;10.73;70.31;96838.13;5045909;28;20491;-72
2022/04/27 10:16:00;;;;;;;37.22;10.45;;;;;;;10.87;71.24;96837.00;5046732;28;20114;-72
2022/04/27 10:18:26;;;;;;;35.22;11.40;;;;;;;11.03;71.09;96839.34;5045443;28;20045;-72
2022/04/27 10:20:53;;;;;;;53.92;12.18;;;;;;;11.09;69.48;96840.84;5046493;28;20699;-72
2022/04/27 10:23:24;;;;;;;39.28;11.25;;;;;;;11.16;70.77;96844.72;5046148;28;20048;-72
2022/04/27 10:26:07;;;;;;;54.00;12.85;;;;;;;11.16;69.45;96838.47;5046070;28;20056;-72
2022/04/27 10:28:37;;;;;;;51.67;11.80;;;;;;;11.11;70.14;96847.56;5046742;28;20051;-72
2022/04/27 10:31:08;;;;;;;44.40;13.60;;;;;;;11.31;70.50;96845.47;5044898;28;20053;-74
2022/04/27 10:33:42;;;;;;;46.30;12.80;;;;;;;11.55;71.36;96845.97;5046664;28;20072;-74
2022/04/27 10:36:22;;;;;;;43.53;12.55;;;;;;;11.56;68.14;96842.13;5045507;28;20044;-72
2022/04/27 10:39:21;;;;;;;48.22;13.50;;;;;;;11.60;68.34;96842.31;5046223;28;20053;-72
2022/04/27 10:42:09;;;;;;;22.60;13.40;;;;;;;11.66;69.74;96844.59;5045089;28;20053;-72
2022/04/27 10:45:07;;;;;;;40.50;12.57;;;;;;;11.71;66.23;96854.56;5035429;28;20047;-73
2022/04/27 10:47:36;;;;;;;32.78;11.40;;;;;;;11.71;66.32;96847.19;5045953;28;20041;-73
2022/04/27 10:50:20;;;;;;;35.45;11.63;;;;;;;11.87;66.82;96852.25;5045803;28;20136;-73
2022/04/27 10:52:51;;;;;;;35.67;10.77;;;;;;;12.04;66.35;96851.53;5045913;28;20653;-73
2022/04/27 10:55:53;;;;;;;23.70;9.52;;;;;;;12.13;64.39;96855.91;5045767;28;20159;-73
2022/04/27 10:58:28;;;;;;;32.65;9.35;;;;;;;12.22;62.25;96853.22;5002458;28;20046;-73
2022/04/27 11:01:25;;;;;;;35.78;10.50;;;;;;;12.50;63.79;96851.03;5003198;28;20125;-73
2022/04/27 11:04:16;;;;;;;11.82;8.35;;;;;;;12.72;62.97;96844.63;5033976;28;20048;-72
2022/04/27 11:07:02;;;;;;;39.35;10.43;;;;;;;12.77;60.41;96848.03;5045186;28;20049;-72
2022/04/27 11:09:50;;;;;;;33.90;10.07;;;;;;;13.06;61.92;96852.88;5045513;28;20149;-75
2022/04/27 11:12:19;;;;;;;36.42;10.10;;;;;;;13.44;60.18;96854.16;5044722;28;20135;-72
2022/04/27 11:14:46;;;;;;;11.18;8.20;;;;;;;13.82;61.46;96849.56;5045420;28;20049;-73
2022/04/27 11:17:13;;;;;;;26.05;8.18;;;;;;;14.08;58.50;96845.94;5045094;28;20045;-72
2022/04/27 11:19:41;;;;;;;45.00;9.48;;;;;;;14.28;56.91;96847.94;5045372;28;20059;-73
2022/04/27 11:22:12;;;;;;;23.88;8.88;;;;;;;14.28;56.56;96850.69;5045185;28;20055;-75
2022/04/27 11:24:38;;;;;;;31.75;9.30;;;;;;;14.21;55.99;96858.63;5045098;28;20727;-72
2022/04/27 11:27:06;;;;;;;21.67;9.35;;;;;;;14.02;56.51;96847.25;5045555;28;20052;-75
2022/04/27 11:29:35;;;;;;;31.08;9.82;;;;;;;14.01;56.09;96853.88;5045144;28;20057;-72
2022/04/27 11:32:05;;;;;;;11.65;8.25;;;;;;;13.95;55.43;96852.44;5045837;28;20048;-73
2022/04/27 11:34:33;;;;;;;46.83;10.60;;;;;;;13.79;56.25;96854.91;5044940;28;20037;-73
2022/04/27 11:37:13;;;;;;;35.65;10.52;;;;;;;13.82;58.55;96849.56;5045664;28;20063;-73
2022/04/27 11:39:40;;;;;;;39.55;10.02;;;;;;;13.85;59.13;96859.06;5045203;28;20052;-72
2022/04/27 11:42:06;;;;;;;9.88;7.85;;;;;;;13.64;56.23;96858.97;5043852;28;20052;-72